CPA663 VHHH-VABB
Flight info
| Callsign | CPA663 |
|---|---|
| Flight time | N/A |
| Altitude | 38100 |
| Route | PECAN3X/07R PECAN V10 SIKOU/K0900S1160 A202 ASSAD/K0902F380 A206 NALAO/N0487F380 A206 LPB B465 MDY/N0485F400 B465 CEA Q20 OPAKA EMRAK2A |
| Aircraft | B772/H-SDE2E3FGHIJ5LORVWXY/LB1D1 |
Departure
| Time | N/A |
|---|---|
| Airport | Hong Kong International Airport (VHHH) |
Arrival
| Time | 2026-05-07 20:44 |
|---|---|
| Airport | Chhatrapati Shivaji Maharaj International Airport (VABB) |
| Time | Latitude | Longitude | Altitude | Speed | Heading |
|---|---|---|---|---|---|
| 2026-05-07 16:28 | 19.74956 | 102.65642 | 38083 ft | 474 kts | 290° |
| 2026-05-07 16:28 | 19.75800 | 102.63120 | 38089 ft | 474 kts | 290° |
| 2026-05-07 16:29 | 19.77538 | 102.57923 | 38098 ft | 473 kts | 290° |
| 2026-05-07 16:29 | 19.79451 | 102.52197 | 38109 ft | 473 kts | 290° |
| 2026-05-07 16:30 | 19.81364 | 102.46465 | 38106 ft | 472 kts | 290° |
| 2026-05-07 16:30 | 19.83284 | 102.40704 | 38068 ft | 473 kts | 290° |
| 2026-05-07 16:31 | 19.85181 | 102.35003 | 38023 ft | 472 kts | 289° |
| 2026-05-07 16:31 | 19.87099 | 102.29236 | 37991 ft | 472 kts | 289° |
| 2026-05-07 16:32 | 19.89038 | 102.23397 | 37960 ft | 473 kts | 289° |
| 2026-05-07 16:32 | 19.91038 | 102.17575 | 37955 ft | 473 kts | 294° |
| 2026-05-07 16:33 | 19.93695 | 102.12315 | 37966 ft | 473 kts | 299° |
| 2026-05-07 16:33 | 19.96484 | 102.07156 | 37980 ft | 472 kts | 299° |
| 2026-05-07 16:34 | 19.99415 | 102.01720 | 38002 ft | 474 kts | 299° |
| 2026-05-07 16:34 | 20.02339 | 101.96288 | 38021 ft | 474 kts | 299° |
| 2026-05-07 16:35 | 20.05247 | 101.90874 | 38016 ft | 474 kts | 299° |
| 2026-05-07 16:35 | 20.08184 | 101.85402 | 38021 ft | 475 kts | 299° |
| 2026-05-07 16:36 | 20.11120 | 101.79924 | 38040 ft | 475 kts | 299° |
| 2026-05-07 16:36 | 20.14052 | 101.74449 | 38063 ft | 474 kts | 298° |
| 2026-05-07 16:37 | 20.16974 | 101.68985 | 38076 ft | 474 kts | 299° |
| 2026-05-07 16:37 | 20.19912 | 101.63487 | 38077 ft | 474 kts | 298° |
| 2026-05-07 16:38 | 20.22844 | 101.57995 | 38070 ft | 474 kts | 298° |
| 2026-05-07 16:38 | 20.25671 | 101.52694 | 38054 ft | 474 kts | 298° |
| 2026-05-07 16:39 | 20.28573 | 101.47248 | 38042 ft | 473 kts | 298° |
| 2026-05-07 16:39 | 20.31382 | 101.41971 | 38046 ft | 474 kts | 298° |
| 2026-05-07 16:40 | 20.34295 | 101.36494 | 38048 ft | 475 kts | 298° |
| 2026-05-07 16:40 | 20.37225 | 101.30979 | 38054 ft | 474 kts | 298° |
| 2026-05-07 16:41 | 20.40146 | 101.25477 | 38056 ft | 474 kts | 298° |
| 2026-05-07 16:41 | 20.43040 | 101.20019 | 38057 ft | 474 kts | 298° |
| 2026-05-07 16:42 | 20.45939 | 101.14548 | 38062 ft | 474 kts | 298° |
| 2026-05-07 16:42 | 20.48814 | 101.09116 | 38069 ft | 474 kts | 298° |
| 2026-05-07 16:43 | 20.51732 | 101.03597 | 38075 ft | 474 kts | 298° |
| 2026-05-07 16:43 | 20.54664 | 100.98046 | 38082 ft | 473 kts | 298° |
| 2026-05-07 16:44 | 20.57580 | 100.92520 | 38073 ft | 474 kts | 298° |
| 2026-05-07 16:44 | 20.60488 | 100.87003 | 38066 ft | 474 kts | 298° |
| 2026-05-07 16:45 | 20.63407 | 100.81462 | 38059 ft | 474 kts | 298° |
| 2026-05-07 16:45 | 20.66266 | 100.76028 | 38066 ft | 473 kts | 298° |
| 2026-05-07 16:46 | 20.69167 | 100.70509 | 38061 ft | 474 kts | 298° |
| 2026-05-07 16:46 | 20.72060 | 100.65000 | 38059 ft | 473 kts | 298° |
| 2026-05-07 16:47 | 20.74931 | 100.59528 | 38052 ft | 474 kts | 298° |
| 2026-05-07 16:47 | 20.77813 | 100.54027 | 38053 ft | 474 kts | 298° |
| 2026-05-07 16:48 | 20.80697 | 100.48480 | 38045 ft | 474 kts | 295° |
| 2026-05-07 16:48 | 20.82760 | 100.42583 | 38050 ft | 473 kts | 286° |
| 2026-05-07 16:49 | 20.84409 | 100.36562 | 38038 ft | 472 kts | 285° |
| 2026-05-07 16:49 | 20.86054 | 100.30519 | 38026 ft | 473 kts | 285° |
| 2026-05-07 16:50 | 20.87680 | 100.24528 | 38013 ft | 472 kts | 285° |
| 2026-05-07 16:50 | 20.89308 | 100.18520 | 38008 ft | 473 kts | 285° |
| 2026-05-07 16:51 | 20.90938 | 100.12493 | 38018 ft | 472 kts | 285° |
| 2026-05-07 16:51 | 20.92573 | 100.06437 | 38023 ft | 473 kts | 285° |
| 2026-05-07 16:52 | 20.94188 | 100.00447 | 38032 ft | 473 kts | 285° |
| 2026-05-07 16:52 | 20.95770 | 99.94570 | 38049 ft | 473 kts | 285° |
| 2026-05-07 16:53 | 20.97362 | 99.88644 | 38059 ft | 472 kts | 285° |
| 2026-05-07 16:53 | 20.98930 | 99.82804 | 38077 ft | 473 kts | 285° |
| 2026-05-07 16:54 | 21.00506 | 99.76920 | 38088 ft | 472 kts | 285° |
| 2026-05-07 16:54 | 21.02087 | 99.71013 | 38098 ft | 473 kts | 285° |
| 2026-05-07 16:55 | 21.03671 | 99.65083 | 38108 ft | 474 kts | 285° |
| 2026-05-07 16:55 | 21.05258 | 99.59133 | 38117 ft | 473 kts | 285° |
| 2026-05-07 16:56 | 21.06840 | 99.53190 | 38124 ft | 473 kts | 285° |
| 2026-05-07 16:56 | 21.09060 | 99.44841 | 38118 ft | 472 kts | 285° |
| 2026-05-07 16:57 | 21.10657 | 99.38824 | 38106 ft | 472 kts | 285° |
| 2026-05-07 16:57 | 21.12221 | 99.32920 | 38103 ft | 472 kts | 284° |
| 2026-05-07 16:58 | 21.13805 | 99.26931 | 38096 ft | 472 kts | 284° |
| 2026-05-07 16:58 | 21.15384 | 99.20955 | 38087 ft | 472 kts | 284° |
| 2026-05-07 16:59 | 21.16993 | 99.14854 | 38089 ft | 472 kts | 284° |
| 2026-05-07 16:59 | 21.18629 | 99.08639 | 38092 ft | 472 kts | 284° |
| 2026-05-07 17:00 | 21.20166 | 99.02794 | 38085 ft | 472 kts | 284° |
| 2026-05-07 17:00 | 21.21658 | 98.97110 | 38099 ft | 470 kts | 284° |
| 2026-05-07 17:01 | 21.23200 | 98.91227 | 38105 ft | 470 kts | 284° |
| 2026-05-07 17:01 | 21.24750 | 98.85303 | 38111 ft | 469 kts | 284° |
| 2026-05-07 17:02 | 21.26303 | 98.79362 | 38116 ft | 468 kts | 284° |
| 2026-05-07 17:02 | 21.27859 | 98.73397 | 38105 ft | 468 kts | 284° |
| 2026-05-07 17:03 | 21.29404 | 98.67467 | 38082 ft | 469 kts | 284° |
| 2026-05-07 17:03 | 21.30929 | 98.61602 | 38065 ft | 468 kts | 284° |
| 2026-05-07 17:04 | 21.32477 | 98.55642 | 38056 ft | 468 kts | 284° |
| 2026-05-07 17:04 | 21.34008 | 98.49736 | 38047 ft | 467 kts | 284° |
| 2026-05-07 17:05 | 21.35552 | 98.43771 | 38045 ft | 468 kts | 284° |
| 2026-05-07 17:05 | 21.37104 | 98.37767 | 38046 ft | 467 kts | 284° |
| 2026-05-07 17:06 | 21.38651 | 98.31772 | 38056 ft | 467 kts | 284° |
| 2026-05-07 17:06 | 21.40181 | 98.25833 | 38054 ft | 466 kts | 284° |
| 2026-05-07 17:07 | 21.41711 | 98.19887 | 38058 ft | 467 kts | 284° |
| 2026-05-07 17:07 | 21.43253 | 98.13882 | 38064 ft | 467 kts | 284° |
| 2026-05-07 17:08 | 21.44787 | 98.07899 | 38075 ft | 465 kts | 284° |
| 2026-05-07 17:08 | 21.46307 | 98.01963 | 38084 ft | 464 kts | 284° |
| 2026-05-07 17:09 | 21.47843 | 97.95953 | 38096 ft | 465 kts | 284° |
| 2026-05-07 17:09 | 21.49384 | 97.89914 | 38091 ft | 464 kts | 284° |
| 2026-05-07 17:10 | 21.50899 | 97.83967 | 38077 ft | 465 kts | 284° |
| 2026-05-07 17:10 | 21.52425 | 97.77969 | 38072 ft | 463 kts | 284° |
| 2026-05-07 17:11 | 21.53935 | 97.72024 | 38070 ft | 463 kts | 284° |
| 2026-05-07 17:11 | 21.55451 | 97.66043 | 38084 ft | 463 kts | 284° |
| 2026-05-07 17:12 | 21.56957 | 97.60098 | 38096 ft | 462 kts | 283° |
| 2026-05-07 17:12 | 21.58447 | 97.54199 | 38106 ft | 462 kts | 283° |
| 2026-05-07 17:13 | 21.59941 | 97.48279 | 38111 ft | 462 kts | 283° |
| 2026-05-07 17:13 | 21.61446 | 97.42305 | 38090 ft | 462 kts | 283° |
| 2026-05-07 17:14 | 21.62965 | 97.36264 | 38070 ft | 462 kts | 283° |
| 2026-05-07 17:14 | 21.64356 | 97.30726 | 38064 ft | 461 kts | 283° |
| 2026-05-07 17:15 | 21.65864 | 97.24712 | 38051 ft | 461 kts | 283° |
| 2026-05-07 17:15 | 21.67353 | 97.18764 | 38052 ft | 463 kts | 283° |
| 2026-05-07 17:16 | 21.68871 | 97.12687 | 38053 ft | 461 kts | 283° |
| 2026-05-07 17:16 | 21.70367 | 97.06690 | 38057 ft | 462 kts | 283° |
| 2026-05-07 17:17 | 21.71858 | 97.00708 | 38048 ft | 461 kts | 283° |
| 2026-05-07 17:17 | 21.73354 | 96.94692 | 38044 ft | 461 kts | 283° |
| 2026-05-07 17:18 | 21.74842 | 96.88698 | 38037 ft | 460 kts | 283° |
| 2026-05-07 17:18 | 21.76337 | 96.82667 | 38043 ft | 459 kts | 283° |
| 2026-05-07 17:19 | 21.77853 | 96.76538 | 38043 ft | 458 kts | 283° |
| 2026-05-07 17:19 | 21.79330 | 96.70558 | 38017 ft | 458 kts | 283° |
| 2026-05-07 17:20 | 21.80809 | 96.64561 | 37994 ft | 458 kts | 283° |
| 2026-05-07 17:20 | 21.82302 | 96.58498 | 37957 ft | 457 kts | 283° |
| 2026-05-07 17:21 | 21.83766 | 96.52538 | 37940 ft | 457 kts | 283° |
| 2026-05-07 17:21 | 21.85245 | 96.46509 | 37928 ft | 458 kts | 283° |
| 2026-05-07 17:22 | 21.86667 | 96.40707 | 37937 ft | 457 kts | 283° |
| 2026-05-07 17:22 | 21.88192 | 96.34470 | 37927 ft | 455 kts | 282° |
| 2026-05-07 17:23 | 21.89697 | 96.28305 | 37930 ft | 457 kts | 282° |
| 2026-05-07 17:23 | 21.91183 | 96.22207 | 37924 ft | 457 kts | 282° |
| 2026-05-07 17:24 | 21.92672 | 96.16086 | 37903 ft | 456 kts | 282° |
| 2026-05-07 17:24 | 21.93670 | 96.09763 | 38055 ft | 458 kts | 274° |
| 2026-05-07 17:25 | 21.93960 | 96.06596 | 38447 ft | 456 kts | 274° |
| 2026-05-07 17:25 | 21.94245 | 96.03424 | 38899 ft | 453 kts | 274° |
| 2026-05-07 17:25 | 21.94500 | 96.00563 | 39196 ft | 452 kts | 274° |
| 2026-05-07 17:25 | 21.94772 | 95.97475 | 39382 ft | 453 kts | 274° |
| 2026-05-07 17:26 | 21.95041 | 95.94412 | 39566 ft | 453 kts | 274° |
| 2026-05-07 17:26 | 21.95314 | 95.91292 | 39736 ft | 454 kts | 274° |
| 2026-05-07 17:26 | 21.95847 | 95.85155 | 39829 ft | 454 kts | 274° |
| 2026-05-07 17:27 | 21.96383 | 95.78949 | 39831 ft | 454 kts | 274° |
| 2026-05-07 17:27 | 21.96920 | 95.72686 | 39831 ft | 453 kts | 274° |
| 2026-05-07 17:28 | 21.97449 | 95.66496 | 39832 ft | 454 kts | 274° |
| 2026-05-07 17:28 | 21.97981 | 95.60229 | 39828 ft | 454 kts | 274° |
| 2026-05-07 17:29 | 21.98503 | 95.54057 | 39827 ft | 453 kts | 274° |
| 2026-05-07 17:29 | 21.99029 | 95.47796 | 39828 ft | 453 kts | 274° |
| 2026-05-07 17:30 | 21.99547 | 95.41616 | 39829 ft | 453 kts | 274° |
| 2026-05-07 17:30 | 22.00066 | 95.35393 | 39827 ft | 453 kts | 274° |
| 2026-05-07 17:31 | 22.00578 | 95.29219 | 39839 ft | 452 kts | 274° |
| 2026-05-07 17:31 | 22.01090 | 95.23027 | 39838 ft | 453 kts | 274° |
| 2026-05-07 17:32 | 22.01598 | 95.16840 | 39843 ft | 453 kts | 274° |
| 2026-05-07 17:32 | 22.02022 | 95.11663 | 39846 ft | 454 kts | 274° |
| 2026-05-07 17:33 | 22.02608 | 95.04469 | 39846 ft | 453 kts | 274° |
| 2026-05-07 17:33 | 22.03105 | 94.98335 | 39854 ft | 454 kts | 274° |
| 2026-05-07 17:34 | 22.03605 | 94.92152 | 39851 ft | 453 kts | 274° |
| 2026-05-07 17:34 | 22.04098 | 94.86006 | 39844 ft | 453 kts | 274° |
| 2026-05-07 17:35 | 22.04589 | 94.79862 | 39861 ft | 454 kts | 274° |
| 2026-05-07 17:35 | 22.05079 | 94.73708 | 39857 ft | 453 kts | 274° |
| 2026-05-07 17:36 | 22.05565 | 94.67572 | 39862 ft | 454 kts | 274° |
| 2026-05-07 17:36 | 22.06049 | 94.61429 | 39872 ft | 453 kts | 274° |
| 2026-05-07 17:37 | 22.06531 | 94.55288 | 39883 ft | 454 kts | 274° |
| 2026-05-07 17:37 | 22.07014 | 94.49099 | 39893 ft | 454 kts | 274° |
| 2026-05-07 17:38 | 22.07492 | 94.42947 | 39906 ft | 454 kts | 274° |
| 2026-05-07 17:38 | 22.07968 | 94.36777 | 39921 ft | 453 kts | 274° |
| 2026-05-07 17:39 | 22.08437 | 94.30685 | 39941 ft | 453 kts | 274° |
| 2026-05-07 17:39 | 22.08906 | 94.24558 | 39957 ft | 453 kts | 274° |
| 2026-05-07 17:40 | 22.09370 | 94.18462 | 39958 ft | 452 kts | 273° |
| 2026-05-07 17:40 | 22.09830 | 94.12387 | 39942 ft | 454 kts | 274° |
| 2026-05-07 17:41 | 22.10291 | 94.06271 | 39943 ft | 451 kts | 274° |
| 2026-05-07 17:41 | 22.10748 | 94.00187 | 39941 ft | 452 kts | 274° |
| 2026-05-07 17:42 | 22.11209 | 93.94007 | 39961 ft | 453 kts | 274° |
| 2026-05-07 17:42 | 22.11659 | 93.87955 | 39982 ft | 453 kts | 274° |
| 2026-05-07 17:43 | 22.12113 | 93.81807 | 40006 ft | 452 kts | 273° |
| 2026-05-07 17:43 | 22.12557 | 93.75774 | 40031 ft | 453 kts | 273° |
| 2026-05-07 17:44 | 22.13003 | 93.69667 | 40065 ft | 453 kts | 273° |
| 2026-05-07 17:44 | 22.13439 | 93.63677 | 40101 ft | 453 kts | 273° |
| 2026-05-07 17:45 | 22.13886 | 93.57503 | 40137 ft | 452 kts | 273° |
| 2026-05-07 17:45 | 22.14324 | 93.51417 | 40172 ft | 452 kts | 273° |
| 2026-05-07 17:46 | 22.14782 | 93.45029 | 40182 ft | 454 kts | 273° |
| 2026-05-07 17:46 | 22.15232 | 93.38718 | 40178 ft | 453 kts | 273° |
| 2026-05-07 17:47 | 22.15684 | 93.32336 | 40184 ft | 453 kts | 273° |
| 2026-05-07 17:47 | 22.16130 | 93.25995 | 40181 ft | 454 kts | 273° |
| 2026-05-07 17:48 | 22.16572 | 93.19700 | 40161 ft | 452 kts | 273° |
| 2026-05-07 17:48 | 22.17013 | 93.13369 | 40137 ft | 454 kts | 273° |
| 2026-05-07 17:49 | 22.17452 | 93.07027 | 40103 ft | 453 kts | 273° |
| 2026-05-07 17:49 | 22.17891 | 93.00663 | 40075 ft | 454 kts | 273° |
| 2026-05-07 17:50 | 22.18335 | 92.94177 | 40031 ft | 453 kts | 273° |
| 2026-05-07 17:50 | 22.18764 | 92.87881 | 40001 ft | 453 kts | 272° |
| 2026-05-07 17:51 | 22.19192 | 92.81554 | 39977 ft | 454 kts | 272° |
| 2026-05-07 17:51 | 22.19620 | 92.75205 | 39946 ft | 452 kts | 272° |
| 2026-05-07 17:52 | 22.20048 | 92.68804 | 39935 ft | 452 kts | 273° |
| 2026-05-07 17:52 | 22.20470 | 92.62369 | 39934 ft | 453 kts | 272° |
| 2026-05-07 17:53 | 22.20858 | 92.56027 | 39932 ft | 451 kts | 272° |
| 2026-05-07 17:53 | 22.21241 | 92.49712 | 39907 ft | 451 kts | 272° |
| 2026-05-07 17:54 | 22.21623 | 92.43400 | 39907 ft | 451 kts | 272° |
| 2026-05-07 17:54 | 22.22005 | 92.37049 | 39894 ft | 450 kts | 272° |
| 2026-05-07 17:55 | 22.22386 | 92.30682 | 39891 ft | 451 kts | 272° |
| 2026-05-07 17:55 | 22.22786 | 92.24346 | 39891 ft | 450 kts | 272° |
| 2026-05-07 17:56 | 22.23253 | 92.17997 | 39890 ft | 450 kts | 272° |
| 2026-05-07 17:56 | 22.23716 | 92.11641 | 39887 ft | 450 kts | 272° |
| 2026-05-07 17:57 | 22.24101 | 92.06307 | 39875 ft | 451 kts | 272° |
| 2026-05-07 17:57 | 22.24632 | 91.98904 | 39885 ft | 450 kts | 272° |
| 2026-05-07 17:58 | 22.25087 | 91.92503 | 39878 ft | 449 kts | 272° |
| 2026-05-07 17:58 | 22.25535 | 91.86159 | 39877 ft | 450 kts | 272° |
| 2026-05-07 17:59 | 22.26039 | 91.79882 | 39879 ft | 451 kts | 275° |
| 2026-05-07 17:59 | 22.26785 | 91.73677 | 39877 ft | 451 kts | 275° |
| 2026-05-07 18:00 | 22.27528 | 91.67430 | 39871 ft | 452 kts | 275° |
| 2026-05-07 18:00 | 22.28254 | 91.61227 | 39864 ft | 451 kts | 275° |
| 2026-05-07 18:01 | 22.28974 | 91.55013 | 39867 ft | 452 kts | 275° |
| 2026-05-07 18:01 | 22.29683 | 91.48843 | 39857 ft | 451 kts | 275° |
| 2026-05-07 18:02 | 22.30732 | 91.39670 | 39848 ft | 452 kts | 275° |
| 2026-05-07 18:03 | 22.31469 | 91.33504 | 39868 ft | 449 kts | 275° |
| 2026-05-07 18:03 | 22.32232 | 91.27399 | 39874 ft | 450 kts | 275° |
| 2026-05-07 18:04 | 22.32987 | 91.21329 | 39877 ft | 449 kts | 275° |
| 2026-05-07 18:04 | 22.33734 | 91.15286 | 39868 ft | 450 kts | 275° |
| 2026-05-07 18:05 | 22.34481 | 91.09221 | 39870 ft | 449 kts | 275° |
| 2026-05-07 18:05 | 22.35225 | 91.03151 | 39870 ft | 450 kts | 275° |
| 2026-05-07 18:06 | 22.35967 | 90.97076 | 39865 ft | 448 kts | 275° |
| 2026-05-07 18:06 | 22.36712 | 90.90960 | 39865 ft | 448 kts | 275° |
| 2026-05-07 18:07 | 22.37454 | 90.84845 | 39862 ft | 449 kts | 275° |
| 2026-05-07 18:07 | 22.38190 | 90.78762 | 39866 ft | 450 kts | 275° |
| 2026-05-07 18:08 | 22.38924 | 90.72672 | 39868 ft | 450 kts | 275° |
| 2026-05-07 18:08 | 22.39653 | 90.66617 | 39865 ft | 449 kts | 275° |
| 2026-05-07 18:09 | 22.40388 | 90.60480 | 39865 ft | 450 kts | 275° |
| 2026-05-07 18:09 | 22.41123 | 90.54323 | 39867 ft | 448 kts | 275° |
| 2026-05-07 18:10 | 22.41851 | 90.48209 | 39861 ft | 450 kts | 275° |
| 2026-05-07 18:10 | 22.42578 | 90.42081 | 39859 ft | 449 kts | 275° |
| 2026-05-07 18:11 | 22.43299 | 90.35986 | 39860 ft | 448 kts | 275° |
| 2026-05-07 18:11 | 22.44025 | 90.29823 | 39866 ft | 449 kts | 275° |
| 2026-05-07 18:12 | 22.44749 | 90.23666 | 39869 ft | 447 kts | 275° |
| 2026-05-07 18:12 | 22.45468 | 90.17524 | 39872 ft | 448 kts | 275° |
| 2026-05-07 18:13 | 22.46186 | 90.11369 | 39862 ft | 448 kts | 274° |
| 2026-05-07 18:13 | 22.46906 | 90.05183 | 39860 ft | 448 kts | 274° |
| 2026-05-07 18:14 | 22.47621 | 89.99010 | 39868 ft | 449 kts | 275° |
| 2026-05-07 18:14 | 22.48331 | 89.92872 | 39874 ft | 448 kts | 275° |
| 2026-05-07 18:15 | 22.49049 | 89.86626 | 39860 ft | 448 kts | 275° |
| 2026-05-07 18:15 | 22.49763 | 89.80411 | 39866 ft | 448 kts | 275° |
| 2026-05-07 18:16 | 22.50467 | 89.74252 | 39868 ft | 447 kts | 275° |
| 2026-05-07 18:16 | 22.51175 | 89.68042 | 39865 ft | 447 kts | 275° |
| 2026-05-07 18:17 | 22.51870 | 89.61917 | 39865 ft | 446 kts | 275° |
| 2026-05-07 18:17 | 22.52564 | 89.55782 | 39865 ft | 446 kts | 275° |
| 2026-05-07 18:18 | 22.53249 | 89.49708 | 39862 ft | 446 kts | 275° |
| 2026-05-07 18:18 | 22.53928 | 89.43667 | 39860 ft | 446 kts | 275° |
| 2026-05-07 18:19 | 22.54608 | 89.37598 | 39863 ft | 446 kts | 275° |
| 2026-05-07 18:19 | 22.55282 | 89.31563 | 39875 ft | 446 kts | 274° |
| 2026-05-07 18:20 | 22.55948 | 89.25577 | 39874 ft | 445 kts | 274° |
| 2026-05-07 18:20 | 22.56618 | 89.19528 | 39869 ft | 446 kts | 274° |
| 2026-05-07 18:21 | 22.57294 | 89.13412 | 39869 ft | 445 kts | 274° |
| 2026-05-07 18:21 | 22.57948 | 89.07466 | 39871 ft | 446 kts | 274° |
| 2026-05-07 18:22 | 22.58602 | 89.01504 | 39870 ft | 446 kts | 274° |
| 2026-05-07 18:22 | 22.59257 | 88.95521 | 39864 ft | 446 kts | 274° |
| 2026-05-07 18:23 | 22.60088 | 88.89563 | 39869 ft | 446 kts | 278° |
| 2026-05-07 18:23 | 22.61125 | 88.83614 | 39866 ft | 447 kts | 278° |
| 2026-05-07 18:24 | 22.62153 | 88.77627 | 39871 ft | 447 kts | 278° |
| 2026-05-07 18:24 | 22.63148 | 88.71761 | 39871 ft | 447 kts | 277° |
| 2026-05-07 18:25 | 22.64152 | 88.65794 | 39871 ft | 447 kts | 277° |
| 2026-05-07 18:25 | 22.65144 | 88.59865 | 39871 ft | 448 kts | 277° |
| 2026-05-07 18:26 | 22.66133 | 88.53928 | 39873 ft | 447 kts | 277° |
| 2026-05-07 18:26 | 22.67121 | 88.47980 | 39877 ft | 447 kts | 277° |
| 2026-05-07 18:27 | 22.67847 | 88.41951 | 39880 ft | 445 kts | 272° |
| 2026-05-07 18:27 | 22.68255 | 88.35840 | 39872 ft | 445 kts | 272° |
| 2026-05-07 18:28 | 22.68657 | 88.29770 | 39881 ft | 445 kts | 272° |
| 2026-05-07 18:28 | 22.69056 | 88.23714 | 39883 ft | 445 kts | 272° |
| 2026-05-07 18:29 | 22.69452 | 88.17665 | 39877 ft | 446 kts | 271° |
| 2026-05-07 18:29 | 22.69849 | 88.11590 | 39874 ft | 445 kts | 272° |
| 2026-05-07 18:30 | 22.70249 | 88.05431 | 39875 ft | 447 kts | 272° |
| 2026-05-07 18:30 | 22.70643 | 87.99335 | 39869 ft | 445 kts | 272° |
| 2026-05-07 18:31 | 22.71039 | 87.93168 | 39867 ft | 445 kts | 272° |
| 2026-05-07 18:31 | 22.71431 | 87.87017 | 39865 ft | 446 kts | 272° |
| 2026-05-07 18:32 | 22.71823 | 87.80828 | 39864 ft | 446 kts | 272° |
| 2026-05-07 18:32 | 22.72211 | 87.74677 | 39859 ft | 446 kts | 272° |
| 2026-05-07 18:33 | 22.72601 | 87.68465 | 39855 ft | 447 kts | 272° |
| 2026-05-07 18:33 | 22.72983 | 87.62322 | 39856 ft | 446 kts | 272° |
| 2026-05-07 18:34 | 22.73366 | 87.56133 | 39854 ft | 446 kts | 272° |
| 2026-05-07 18:34 | 22.73744 | 87.49977 | 39854 ft | 446 kts | 272° |
| 2026-05-07 18:35 | 22.74123 | 87.43777 | 39844 ft | 446 kts | 272° |
| 2026-05-07 18:35 | 22.74498 | 87.37599 | 39848 ft | 446 kts | 272° |
| 2026-05-07 18:36 | 22.74877 | 87.31320 | 39860 ft | 446 kts | 272° |
| 2026-05-07 18:36 | 22.75250 | 87.25090 | 39861 ft | 445 kts | 272° |
| 2026-05-07 18:37 | 22.75623 | 87.18826 | 39858 ft | 445 kts | 272° |
| 2026-05-07 18:37 | 22.75994 | 87.12558 | 39860 ft | 446 kts | 272° |
| 2026-05-07 18:38 | 22.76362 | 87.06289 | 39858 ft | 447 kts | 271° |
| 2026-05-07 18:38 | 22.76732 | 86.99954 | 39855 ft | 446 kts | 271° |
| 2026-05-07 18:39 | 22.77096 | 86.93672 | 39860 ft | 446 kts | 271° |
| 2026-05-07 18:39 | 22.77459 | 86.87368 | 39865 ft | 445 kts | 271° |
| 2026-05-07 18:40 | 22.77819 | 86.81074 | 39870 ft | 445 kts | 272° |
| 2026-05-07 18:40 | 22.78177 | 86.74773 | 39875 ft | 445 kts | 271° |
| 2026-05-07 18:41 | 22.78533 | 86.68460 | 39876 ft | 444 kts | 272° |
| 2026-05-07 18:41 | 22.78884 | 86.62180 | 39880 ft | 445 kts | 272° |
| 2026-05-07 18:42 | 22.79221 | 86.56113 | 39882 ft | 443 kts | 272° |
| 2026-05-07 18:42 | 22.79568 | 86.49829 | 39888 ft | 443 kts | 272° |
| 2026-05-07 18:43 | 22.79910 | 86.43599 | 39883 ft | 441 kts | 271° |
| 2026-05-07 18:43 | 22.80252 | 86.37318 | 39881 ft | 441 kts | 272° |
| 2026-05-07 18:44 | 22.80595 | 86.30959 | 39886 ft | 441 kts | 271° |
| 2026-05-07 18:44 | 22.80931 | 86.24691 | 39885 ft | 441 kts | 271° |
| 2026-05-07 18:45 | 22.81051 | 86.18481 | 39879 ft | 438 kts | 264° |
| 2026-05-07 18:45 | 22.79952 | 86.12387 | 39886 ft | 438 kts | 255° |
| 2026-05-07 18:46 | 22.78400 | 86.06393 | 39882 ft | 439 kts | 255° |
| 2026-05-07 18:46 | 22.76805 | 86.00296 | 39880 ft | 437 kts | 255° |
| 2026-05-07 18:47 | 22.75226 | 85.94295 | 39881 ft | 439 kts | 255° |
| 2026-05-07 18:47 | 22.73636 | 85.88273 | 39884 ft | 439 kts | 255° |
| 2026-05-07 18:48 | 22.72030 | 85.82203 | 39886 ft | 439 kts | 255° |
| 2026-05-07 18:48 | 22.70416 | 85.76119 | 39886 ft | 440 kts | 255° |
| 2026-05-07 18:49 | 22.68794 | 85.70019 | 39890 ft | 440 kts | 255° |
| 2026-05-07 18:49 | 22.67169 | 85.63916 | 39900 ft | 440 kts | 255° |
| 2026-05-07 18:50 | 22.65548 | 85.57836 | 39907 ft | 439 kts | 255° |
| 2026-05-07 18:50 | 22.63925 | 85.51762 | 39915 ft | 441 kts | 255° |
| 2026-05-07 18:51 | 22.62287 | 85.45641 | 39918 ft | 441 kts | 255° |
| 2026-05-07 18:51 | 22.60658 | 85.39567 | 39911 ft | 441 kts | 255° |
| 2026-05-07 18:52 | 22.59011 | 85.33432 | 39918 ft | 442 kts | 255° |
| 2026-05-07 18:52 | 22.57383 | 85.27379 | 39911 ft | 442 kts | 255° |
| 2026-05-07 18:53 | 22.55753 | 85.21326 | 39906 ft | 443 kts | 255° |
| 2026-05-07 18:53 | 22.54127 | 85.15301 | 39908 ft | 443 kts | 255° |
| 2026-05-07 18:54 | 22.52497 | 85.09270 | 39904 ft | 444 kts | 255° |
| 2026-05-07 18:54 | 22.50839 | 85.03146 | 39905 ft | 443 kts | 255° |
| 2026-05-07 18:55 | 22.49198 | 84.97094 | 39899 ft | 445 kts | 255° |
| 2026-05-07 18:55 | 22.47566 | 84.91085 | 39903 ft | 444 kts | 255° |
| 2026-05-07 18:56 | 22.45926 | 84.85054 | 39904 ft | 444 kts | 255° |
| 2026-05-07 18:56 | 22.44272 | 84.78986 | 39901 ft | 444 kts | 255° |
| 2026-05-07 18:57 | 22.42620 | 84.72930 | 39904 ft | 443 kts | 255° |
| 2026-05-07 18:57 | 22.40978 | 84.66924 | 39899 ft | 444 kts | 255° |
| 2026-05-07 18:58 | 22.39336 | 84.60927 | 39894 ft | 444 kts | 255° |
| 2026-05-07 18:58 | 22.37679 | 84.54882 | 39887 ft | 444 kts | 255° |
| 2026-05-07 18:59 | 22.36033 | 84.48890 | 39889 ft | 443 kts | 255° |
| 2026-05-07 18:59 | 22.34390 | 84.42916 | 39887 ft | 444 kts | 255° |
| 2026-05-07 19:00 | 22.32728 | 84.36885 | 39879 ft | 443 kts | 255° |
| 2026-05-07 19:00 | 22.31070 | 84.30873 | 39893 ft | 445 kts | 255° |
| 2026-05-07 19:01 | 22.29408 | 84.24860 | 39894 ft | 444 kts | 255° |
| 2026-05-07 19:01 | 22.27747 | 84.18859 | 39882 ft | 444 kts | 255° |
| 2026-05-07 19:02 | 22.26075 | 84.12830 | 39882 ft | 444 kts | 255° |
| 2026-05-07 19:02 | 22.24388 | 84.06755 | 39884 ft | 443 kts | 255° |
| 2026-05-07 19:03 | 22.22717 | 84.00747 | 39883 ft | 444 kts | 255° |
| 2026-05-07 19:03 | 22.21047 | 83.94748 | 39880 ft | 443 kts | 255° |
| 2026-05-07 19:04 | 22.19369 | 83.88732 | 39875 ft | 445 kts | 255° |
| 2026-05-07 19:04 | 22.17691 | 83.82728 | 39899 ft | 443 kts | 255° |
| 2026-05-07 19:05 | 22.16005 | 83.76704 | 39890 ft | 445 kts | 255° |
| 2026-05-07 19:05 | 22.14315 | 83.70674 | 39875 ft | 446 kts | 255° |
| 2026-05-07 19:06 | 22.12628 | 83.64666 | 39862 ft | 445 kts | 255° |
| 2026-05-07 19:06 | 22.10097 | 83.55666 | 39867 ft | 445 kts | 255° |
| 2026-05-07 19:07 | 22.08396 | 83.49629 | 39849 ft | 445 kts | 255° |
| 2026-05-07 19:07 | 22.06732 | 83.43596 | 39855 ft | 446 kts | 256° |
| 2026-05-07 19:08 | 22.05132 | 83.37517 | 39868 ft | 446 kts | 256° |
| 2026-05-07 19:08 | 22.03515 | 83.31395 | 39893 ft | 447 kts | 256° |
| 2026-05-07 19:09 | 22.01924 | 83.25390 | 39901 ft | 446 kts | 256° |
| 2026-05-07 19:09 | 22.00315 | 83.19334 | 39896 ft | 447 kts | 256° |
| 2026-05-07 19:10 | 21.98707 | 83.13293 | 39881 ft | 447 kts | 256° |
| 2026-05-07 19:10 | 21.97075 | 83.07173 | 39864 ft | 447 kts | 256° |
| 2026-05-07 19:11 | 21.95466 | 83.01152 | 39854 ft | 448 kts | 256° |
| 2026-05-07 19:11 | 21.93839 | 82.95072 | 39846 ft | 448 kts | 256° |
| 2026-05-07 19:12 | 21.92213 | 82.89005 | 39846 ft | 448 kts | 256° |
| 2026-05-07 19:12 | 21.90579 | 82.82921 | 39847 ft | 449 kts | 256° |
| 2026-05-07 19:13 | 21.88953 | 82.76872 | 39846 ft | 449 kts | 256° |
| 2026-05-07 19:13 | 21.87298 | 82.70728 | 39846 ft | 449 kts | 256° |
| 2026-05-07 19:14 | 21.85671 | 82.64696 | 39845 ft | 449 kts | 256° |
| 2026-05-07 19:14 | 21.84036 | 82.58646 | 39845 ft | 450 kts | 256° |
| 2026-05-07 19:15 | 21.82400 | 82.52603 | 39845 ft | 450 kts | 256° |
| 2026-05-07 19:15 | 21.80767 | 82.46577 | 39845 ft | 450 kts | 256° |
| 2026-05-07 19:16 | 21.79104 | 82.40451 | 39844 ft | 451 kts | 256° |
| 2026-05-07 19:16 | 21.77449 | 82.34365 | 39847 ft | 450 kts | 255° |
| 2026-05-07 19:17 | 21.75798 | 82.28304 | 39856 ft | 450 kts | 256° |
| 2026-05-07 19:17 | 21.74155 | 82.22280 | 39858 ft | 451 kts | 256° |
| 2026-05-07 19:18 | 21.72494 | 82.16200 | 39857 ft | 451 kts | 256° |
| 2026-05-07 19:18 | 21.70828 | 82.10109 | 39855 ft | 452 kts | 256° |
| 2026-05-07 19:19 | 21.69154 | 82.04002 | 39858 ft | 453 kts | 256° |
| 2026-05-07 19:19 | 21.67473 | 81.97881 | 39858 ft | 453 kts | 256° |
| 2026-05-07 19:20 | 21.65803 | 81.91824 | 39860 ft | 453 kts | 255° |
| 2026-05-07 19:20 | 21.64123 | 81.85740 | 39858 ft | 452 kts | 255° |
| 2026-05-07 19:21 | 21.62433 | 81.79627 | 39863 ft | 455 kts | 255° |
| 2026-05-07 19:21 | 21.60723 | 81.73454 | 39871 ft | 456 kts | 255° |
| 2026-05-07 19:22 | 21.59049 | 81.67421 | 39879 ft | 454 kts | 256° |
| 2026-05-07 19:22 | 21.57371 | 81.61379 | 39878 ft | 454 kts | 256° |
| 2026-05-07 19:23 | 21.55675 | 81.55282 | 39877 ft | 455 kts | 255° |
| 2026-05-07 19:23 | 21.53980 | 81.49199 | 39884 ft | 455 kts | 256° |
| 2026-05-07 19:24 | 21.52266 | 81.43057 | 39882 ft | 455 kts | 256° |
| 2026-05-07 19:24 | 21.50547 | 81.36908 | 39879 ft | 457 kts | 255° |
| 2026-05-07 19:25 | 21.48836 | 81.30795 | 39893 ft | 457 kts | 255° |
| 2026-05-07 19:25 | 21.47121 | 81.24678 | 39898 ft | 456 kts | 255° |
| 2026-05-07 19:26 | 21.45422 | 81.18629 | 39888 ft | 457 kts | 255° |
| 2026-05-07 19:26 | 21.43707 | 81.12528 | 39890 ft | 457 kts | 255° |
| 2026-05-07 19:27 | 21.41972 | 81.06371 | 39888 ft | 458 kts | 255° |
| 2026-05-07 19:27 | 21.40256 | 81.00286 | 39885 ft | 460 kts | 255° |
| 2026-05-07 19:28 | 21.38522 | 80.94151 | 39899 ft | 458 kts | 255° |
| 2026-05-07 19:28 | 21.36786 | 80.88014 | 39906 ft | 458 kts | 255° |
| 2026-05-07 19:29 | 21.35059 | 80.81918 | 39910 ft | 460 kts | 255° |
| 2026-05-07 19:29 | 21.33325 | 80.75809 | 39909 ft | 459 kts | 255° |
| 2026-05-07 19:30 | 21.31573 | 80.69645 | 39907 ft | 460 kts | 255° |
| 2026-05-07 19:30 | 21.29831 | 80.63531 | 39901 ft | 458 kts | 255° |
| 2026-05-07 19:31 | 21.28118 | 80.57523 | 39881 ft | 459 kts | 255° |
| 2026-05-07 19:31 | 21.26388 | 80.51467 | 39871 ft | 460 kts | 255° |
| 2026-05-07 19:32 | 21.24655 | 80.45410 | 39869 ft | 460 kts | 255° |
| 2026-05-07 19:32 | 21.22928 | 80.39379 | 39871 ft | 460 kts | 255° |
| 2026-05-07 19:33 | 21.21193 | 80.33331 | 39881 ft | 461 kts | 255° |
| 2026-05-07 19:33 | 21.19439 | 80.27226 | 39880 ft | 461 kts | 255° |
| 2026-05-07 19:34 | 21.17695 | 80.21168 | 39883 ft | 461 kts | 255° |
| 2026-05-07 19:34 | 21.15958 | 80.15140 | 39884 ft | 462 kts | 255° |
| 2026-05-07 19:35 | 21.14205 | 80.09064 | 39883 ft | 462 kts | 255° |
| 2026-05-07 19:35 | 21.12431 | 80.02928 | 39883 ft | 463 kts | 255° |
| 2026-05-07 19:36 | 21.10660 | 79.96808 | 39877 ft | 464 kts | 255° |
| 2026-05-07 19:36 | 21.08898 | 79.90730 | 39869 ft | 464 kts | 255° |
| 2026-05-07 19:37 | 21.07137 | 79.84663 | 39866 ft | 463 kts | 255° |
| 2026-05-07 19:37 | 21.05363 | 79.78562 | 39861 ft | 464 kts | 255° |
| 2026-05-07 19:38 | 21.03603 | 79.72516 | 39859 ft | 463 kts | 255° |
| 2026-05-07 19:38 | 21.01803 | 79.66342 | 39857 ft | 464 kts | 255° |
| 2026-05-07 19:39 | 21.00003 | 79.60178 | 39857 ft | 463 kts | 255° |
| 2026-05-07 19:39 | 20.98208 | 79.54041 | 39854 ft | 463 kts | 255° |
| 2026-05-07 19:40 | 20.96430 | 79.47971 | 39855 ft | 463 kts | 255° |
| 2026-05-07 19:40 | 20.94637 | 79.41858 | 39855 ft | 463 kts | 255° |
| 2026-05-07 19:41 | 20.92844 | 79.35750 | 39855 ft | 464 kts | 255° |
| 2026-05-07 19:41 | 20.91029 | 79.29580 | 39867 ft | 463 kts | 254° |
| 2026-05-07 19:42 | 20.89293 | 79.23434 | 39867 ft | 462 kts | 256° |
| 2026-05-07 19:42 | 20.87670 | 79.17323 | 39862 ft | 464 kts | 256° |
| 2026-05-07 19:43 | 20.86032 | 79.11188 | 39864 ft | 464 kts | 256° |
| 2026-05-07 19:43 | 20.84384 | 79.05038 | 39863 ft | 464 kts | 256° |
| 2026-05-07 19:44 | 20.82722 | 78.98854 | 39860 ft | 464 kts | 256° |
| 2026-05-07 19:44 | 20.81062 | 78.92693 | 39863 ft | 465 kts | 256° |
| 2026-05-07 19:45 | 20.79399 | 78.86534 | 39861 ft | 464 kts | 256° |
| 2026-05-07 19:45 | 20.77746 | 78.80421 | 39851 ft | 464 kts | 256° |
| 2026-05-07 19:46 | 20.76066 | 78.74221 | 39847 ft | 465 kts | 256° |
| 2026-05-07 19:46 | 20.74390 | 78.68044 | 39845 ft | 464 kts | 256° |
| 2026-05-07 19:47 | 20.72711 | 78.61866 | 39847 ft | 466 kts | 256° |
| 2026-05-07 19:47 | 20.71020 | 78.55654 | 39846 ft | 465 kts | 256° |
| 2026-05-07 19:48 | 20.69341 | 78.49495 | 39848 ft | 465 kts | 256° |
| 2026-05-07 19:48 | 20.67641 | 78.43266 | 39847 ft | 466 kts | 256° |
| 2026-05-07 19:49 | 20.65950 | 78.37083 | 39850 ft | 465 kts | 256° |
| 2026-05-07 19:49 | 20.64255 | 78.30893 | 39860 ft | 467 kts | 255° |
| 2026-05-07 19:50 | 20.62551 | 78.24681 | 39862 ft | 466 kts | 255° |
| 2026-05-07 19:50 | 20.60849 | 78.18484 | 39865 ft | 467 kts | 255° |
| 2026-05-07 19:51 | 20.59148 | 78.12300 | 39871 ft | 467 kts | 255° |
| 2026-05-07 19:51 | 20.57444 | 78.06119 | 39870 ft | 467 kts | 256° |
| 2026-05-07 19:52 | 20.55751 | 77.99950 | 39877 ft | 467 kts | 256° |
| 2026-05-07 19:52 | 20.54095 | 77.93820 | 39881 ft | 466 kts | 256° |
| 2026-05-07 19:53 | 20.52414 | 77.87609 | 39884 ft | 466 kts | 256° |
| 2026-05-07 19:53 | 20.50780 | 77.81462 | 39885 ft | 467 kts | 256° |
| 2026-05-07 19:54 | 20.49155 | 77.75337 | 39883 ft | 468 kts | 256° |
| 2026-05-07 19:54 | 20.47495 | 77.69094 | 39883 ft | 467 kts | 256° |
| 2026-05-07 19:55 | 20.45840 | 77.62884 | 39883 ft | 467 kts | 256° |
| 2026-05-07 19:55 | 20.44179 | 77.56662 | 39886 ft | 469 kts | 256° |
| 2026-05-07 19:56 | 20.42527 | 77.50484 | 39886 ft | 468 kts | 256° |
| 2026-05-07 19:56 | 20.40877 | 77.44323 | 39888 ft | 469 kts | 256° |
| 2026-05-07 19:57 | 20.39188 | 77.38026 | 39890 ft | 469 kts | 256° |
| 2026-05-07 19:57 | 20.37499 | 77.31740 | 39901 ft | 469 kts | 256° |
| 2026-05-07 19:58 | 20.35791 | 77.25394 | 39903 ft | 470 kts | 256° |
| 2026-05-07 19:58 | 20.34096 | 77.19104 | 39906 ft | 470 kts | 256° |
| 2026-05-07 19:59 | 20.32412 | 77.12868 | 39909 ft | 471 kts | 256° |
| 2026-05-07 19:59 | 20.30826 | 77.06998 | 39915 ft | 470 kts | 256° |
| 2026-05-07 20:00 | 20.29054 | 77.00455 | 39916 ft | 470 kts | 256° |
| 2026-05-07 20:00 | 20.27420 | 76.94429 | 39923 ft | 470 kts | 256° |
| 2026-05-07 20:01 | 20.26026 | 76.89296 | 39921 ft | 470 kts | 256° |
| 2026-05-07 20:01 | 20.24405 | 76.83336 | 39929 ft | 471 kts | 256° |
| 2026-05-07 20:02 | 20.22675 | 76.76981 | 39922 ft | 471 kts | 256° |
| 2026-05-07 20:02 | 20.20873 | 76.70373 | 39926 ft | 472 kts | 256° |
| 2026-05-07 20:03 | 20.19178 | 76.64168 | 39925 ft | 471 kts | 256° |
| 2026-05-07 20:03 | 20.17457 | 76.57879 | 39925 ft | 472 kts | 256° |
| 2026-05-07 20:04 | 20.15749 | 76.51643 | 39930 ft | 472 kts | 256° |
| 2026-05-07 20:04 | 20.14027 | 76.45370 | 39929 ft | 472 kts | 255° |
| 2026-05-07 20:05 | 20.12308 | 76.39114 | 39928 ft | 472 kts | 256° |
| 2026-05-07 20:05 | 20.10566 | 76.32786 | 39939 ft | 472 kts | 255° |
| 2026-05-07 20:06 | 20.08837 | 76.26515 | 39938 ft | 472 kts | 255° |
| 2026-05-07 20:06 | 20.07131 | 76.20335 | 39929 ft | 472 kts | 255° |
| 2026-05-07 20:07 | 20.05403 | 76.14082 | 39939 ft | 473 kts | 255° |
| 2026-05-07 20:07 | 20.03678 | 76.07856 | 39935 ft | 472 kts | 255° |
| 2026-05-07 20:08 | 20.01918 | 76.01508 | 39939 ft | 473 kts | 255° |
| 2026-05-07 20:08 | 20.00170 | 75.95207 | 39937 ft | 474 kts | 255° |
| 2026-05-07 20:09 | 19.98554 | 75.89390 | 39940 ft | 474 kts | 255° |
| 2026-05-07 20:10 | 19.96015 | 75.80267 | 39944 ft | 473 kts | 255° |
| 2026-05-07 20:10 | 19.94343 | 75.74273 | 39944 ft | 473 kts | 255° |
| 2026-05-07 20:11 | 19.92672 | 75.68285 | 39942 ft | 474 kts | 255° |
| 2026-05-07 20:11 | 19.90974 | 75.62215 | 39942 ft | 475 kts | 255° |
| 2026-05-07 20:12 | 19.89290 | 75.56199 | 39939 ft | 474 kts | 255° |
| 2026-05-07 20:12 | 19.87640 | 75.50314 | 39939 ft | 475 kts | 255° |
| 2026-05-07 20:13 | 19.85768 | 75.43645 | 39934 ft | 475 kts | 255° |
| 2026-05-07 20:13 | 19.83950 | 75.37183 | 39931 ft | 475 kts | 255° |
| 2026-05-07 20:14 | 19.82086 | 75.30565 | 39934 ft | 475 kts | 255° |
| 2026-05-07 20:14 | 19.80315 | 75.24286 | 39931 ft | 476 kts | 255° |
| 2026-05-07 20:15 | 19.78534 | 75.17982 | 39925 ft | 475 kts | 255° |
| 2026-05-07 20:15 | 19.76723 | 75.11578 | 39921 ft | 476 kts | 254° |
| 2026-05-07 20:16 | 19.74936 | 75.05274 | 39814 ft | 470 kts | 254° |
| 2026-05-07 20:16 | 19.74088 | 75.02287 | 39059 ft | 467 kts | 255° |
| 2026-05-07 20:16 | 19.73242 | 74.99305 | 37944 ft | 470 kts | 255° |
| 2026-05-07 20:16 | 19.72407 | 74.96364 | 37132 ft | 469 kts | 255° |
| 2026-05-07 20:17 | 19.71542 | 74.93321 | 36361 ft | 468 kts | 255° |
| 2026-05-07 20:17 | 19.70709 | 74.90393 | 35587 ft | 467 kts | 255° |
| 2026-05-07 20:17 | 19.69855 | 74.87391 | 34761 ft | 467 kts | 255° |
| 2026-05-07 20:17 | 19.69016 | 74.84445 | 33931 ft | 467 kts | 255° |
| 2026-05-07 20:18 | 19.68170 | 74.81478 | 33109 ft | 466 kts | 255° |
| 2026-05-07 20:18 | 19.67302 | 74.78432 | 32243 ft | 467 kts | 256° |
| 2026-05-07 20:18 | 19.66462 | 74.75488 | 31429 ft | 467 kts | 256° |
| 2026-05-07 20:18 | 19.65610 | 74.72504 | 30599 ft | 468 kts | 256° |
| 2026-05-07 20:19 | 19.64766 | 74.69554 | 30092 ft | 462 kts | 256° |
| 2026-05-07 20:19 | 19.63908 | 74.66556 | 29643 ft | 464 kts | 256° |
| 2026-05-07 20:19 | 19.63048 | 74.63541 | 29124 ft | 478 kts | 256° |
| 2026-05-07 20:19 | 19.62182 | 74.60516 | 28569 ft | 475 kts | 256° |
| 2026-05-07 20:20 | 19.61308 | 74.57472 | 28033 ft | 470 kts | 256° |
| 2026-05-07 20:20 | 19.60466 | 74.54539 | 27511 ft | 465 kts | 256° |
| 2026-05-07 20:20 | 19.59650 | 74.51579 | 26962 ft | 460 kts | 257° |
| 2026-05-07 20:20 | 19.58852 | 74.48628 | 26399 ft | 456 kts | 257° |
| 2026-05-07 20:21 | 19.58065 | 74.45715 | 25913 ft | 449 kts | 257° |
| 2026-05-07 20:21 | 19.57324 | 74.42981 | 25617 ft | 434 kts | 257° |
| 2026-05-07 20:21 | 19.56592 | 74.40285 | 25408 ft | 418 kts | 257° |
| 2026-05-07 20:21 | 19.55925 | 74.37833 | 25210 ft | 401 kts | 257° |
| 2026-05-07 20:22 | 19.55240 | 74.35318 | 24959 ft | 382 kts | 258° |
| 2026-05-07 20:22 | 19.54628 | 74.33067 | 24762 ft | 366 kts | 258° |
| 2026-05-07 20:22 | 19.53997 | 74.30746 | 24382 ft | 355 kts | 258° |
| 2026-05-07 20:22 | 19.53412 | 74.28591 | 24019 ft | 353 kts | 258° |
| 2026-05-07 20:23 | 19.52769 | 74.26218 | 23558 ft | 354 kts | 258° |
| 2026-05-07 20:23 | 19.52131 | 74.23871 | 23134 ft | 354 kts | 258° |
| 2026-05-07 20:23 | 19.51539 | 74.21700 | 22765 ft | 352 kts | 258° |
| 2026-05-07 20:23 | 19.50943 | 74.19518 | 22419 ft | 350 kts | 258° |
| 2026-05-07 20:24 | 19.50285 | 74.17111 | 22035 ft | 349 kts | 258° |
| 2026-05-07 20:24 | 19.49625 | 74.14697 | 21648 ft | 348 kts | 258° |
| 2026-05-07 20:24 | 19.48968 | 74.12296 | 21265 ft | 347 kts | 258° |
| 2026-05-07 20:24 | 19.48312 | 74.09899 | 20888 ft | 346 kts | 258° |
| 2026-05-07 20:25 | 19.47667 | 74.07544 | 20514 ft | 344 kts | 257° |
| 2026-05-07 20:25 | 19.47030 | 74.05221 | 20161 ft | 343 kts | 257° |
| 2026-05-07 20:25 | 19.46396 | 74.02908 | 19772 ft | 341 kts | 257° |
| 2026-05-07 20:25 | 19.45745 | 74.00534 | 19326 ft | 340 kts | 257° |
| 2026-05-07 20:26 | 19.45105 | 73.98203 | 18894 ft | 338 kts | 256° |
| 2026-05-07 20:26 | 19.44494 | 73.95977 | 18464 ft | 336 kts | 256° |
| 2026-05-07 20:26 | 19.43843 | 73.93610 | 18034 ft | 334 kts | 256° |
| 2026-05-07 20:26 | 19.43219 | 73.91338 | 17590 ft | 333 kts | 255° |
| 2026-05-07 20:27 | 19.42583 | 73.89027 | 17067 ft | 332 kts | 255° |
| 2026-05-07 20:27 | 19.41836 | 73.86758 | 16442 ft | 331 kts | 245° |
| 2026-05-07 20:27 | 19.40824 | 73.84664 | 15909 ft | 326 kts | 241° |
| 2026-05-07 20:27 | 19.39798 | 73.82690 | 15753 ft | 308 kts | 241° |
| 2026-05-07 20:28 | 19.38803 | 73.80774 | 15477 ft | 298 kts | 241° |
| 2026-05-07 20:28 | 19.37843 | 73.78919 | 14967 ft | 298 kts | 240° |
| 2026-05-07 20:28 | 19.36887 | 73.77065 | 14578 ft | 298 kts | 240° |
| 2026-05-07 20:28 | 19.35948 | 73.75242 | 14305 ft | 297 kts | 240° |
| 2026-05-07 20:29 | 19.34987 | 73.73378 | 14042 ft | 295 kts | 240° |
| 2026-05-07 20:29 | 19.34020 | 73.71502 | 13761 ft | 293 kts | 239° |
| 2026-05-07 20:29 | 19.33081 | 73.69680 | 13443 ft | 291 kts | 239° |
| 2026-05-07 20:29 | 19.32144 | 73.67863 | 13028 ft | 291 kts | 239° |
| 2026-05-07 20:30 | 19.31196 | 73.66026 | 12581 ft | 291 kts | 239° |
| 2026-05-07 20:30 | 19.30240 | 73.64175 | 12154 ft | 291 kts | 239° |
| 2026-05-07 20:30 | 19.29299 | 73.62352 | 11781 ft | 289 kts | 239° |
| 2026-05-07 20:30 | 19.28373 | 73.60560 | 11403 ft | 289 kts | 240° |
| 2026-05-07 20:31 | 19.27416 | 73.58706 | 11007 ft | 289 kts | 240° |
| 2026-05-07 20:31 | 19.26573 | 73.57075 | 10659 ft | 289 kts | 240° |
| 2026-05-07 20:31 | 19.25807 | 73.55593 | 10353 ft | 288 kts | 240° |
| 2026-05-07 20:31 | 19.24795 | 73.53635 | 9952 ft | 288 kts | 240° |
| 2026-05-07 20:32 | 19.23881 | 73.51868 | 9590 ft | 287 kts | 240° |
| 2026-05-07 20:32 | 19.23020 | 73.50202 | 9296 ft | 286 kts | 241° |
| 2026-05-07 20:32 | 19.22155 | 73.48531 | 9005 ft | 285 kts | 241° |
| 2026-05-07 20:32 | 19.21249 | 73.46774 | 8724 ft | 283 kts | 244° |
| 2026-05-07 20:33 | 19.20723 | 73.44888 | 8382 ft | 280 kts | 269° |
| 2026-05-07 20:33 | 19.20780 | 73.43011 | 8118 ft | 276 kts | 274° |
| 2026-05-07 20:33 | 19.20773 | 73.41200 | 7887 ft | 273 kts | 269° |
| 2026-05-07 20:33 | 19.20649 | 73.39331 | 7794 ft | 261 kts | 267° |
| 2026-05-07 20:34 | 19.20492 | 73.37659 | 7716 ft | 250 kts | 266° |
| 2026-05-07 20:34 | 19.20320 | 73.35979 | 7442 ft | 248 kts | 266° |
| 2026-05-07 20:34 | 19.20145 | 73.34331 | 7157 ft | 247 kts | 266° |
| 2026-05-07 20:34 | 19.19971 | 73.32695 | 6896 ft | 245 kts | 266° |
| 2026-05-07 20:35 | 19.19692 | 73.31045 | 6632 ft | 244 kts | 256° |
| 2026-05-07 20:35 | 19.19165 | 73.29485 | 6353 ft | 243 kts | 252° |
| 2026-05-07 20:35 | 19.18612 | 73.27939 | 6086 ft | 242 kts | 252° |
| 2026-05-07 20:35 | 19.18135 | 73.26611 | 5831 ft | 241 kts | 252° |
| 2026-05-07 20:36 | 19.17570 | 73.25036 | 5567 ft | 239 kts | 252° |
| 2026-05-07 20:36 | 19.17033 | 73.23541 | 5291 ft | 238 kts | 252° |
| 2026-05-07 20:36 | 19.16468 | 73.21967 | 5016 ft | 236 kts | 253° |
| 2026-05-07 20:36 | 19.15921 | 73.20444 | 4741 ft | 235 kts | 253° |
| 2026-05-07 20:37 | 19.15367 | 73.18904 | 4457 ft | 234 kts | 253° |
| 2026-05-07 20:37 | 19.14838 | 73.17430 | 4191 ft | 233 kts | 253° |
| 2026-05-07 20:37 | 19.14295 | 73.15918 | 3928 ft | 231 kts | 253° |
| 2026-05-07 20:37 | 19.13755 | 73.14417 | 3648 ft | 231 kts | 253° |
| 2026-05-07 20:38 | 19.13121 | 73.12944 | 3499 ft | 224 kts | 245° |
| 2026-05-07 20:38 | 19.12429 | 73.11665 | 3465 ft | 208 kts | 244° |
| 2026-05-07 20:38 | 19.11758 | 73.10440 | 3328 ft | 200 kts | 244° |
| 2026-05-07 20:38 | 19.11086 | 73.09210 | 3051 ft | 201 kts | 244° |
| 2026-05-07 20:39 | 19.10407 | 73.07967 | 2907 ft | 197 kts | 244° |
| 2026-05-07 20:39 | 19.09719 | 73.06706 | 2889 ft | 200 kts | 244° |
| 2026-05-07 20:39 | 19.09219 | 73.05384 | 2890 ft | 198 kts | 262° |
| 2026-05-07 20:39 | 19.09097 | 73.03957 | 2882 ft | 194 kts | 272° |
| 2026-05-07 20:40 | 19.09086 | 73.02606 | 2661 ft | 194 kts | 274° |
| 2026-05-07 20:40 | 19.09074 | 73.01255 | 2436 ft | 182 kts | 274° |
| 2026-05-07 20:40 | 19.09055 | 73.00014 | 2233 ft | 173 kts | 274° |
| 2026-05-07 20:40 | 19.09039 | 72.98849 | 2039 ft | 168 kts | 274° |
| 2026-05-07 20:41 | 19.09023 | 72.97720 | 1853 ft | 157 kts | 274° |
| 2026-05-07 20:41 | 19.09008 | 72.96707 | 1679 ft | 148 kts | 274° |
| 2026-05-07 20:41 | 19.08996 | 72.95703 | 1496 ft | 143 kts | 273° |
| 2026-05-07 20:41 | 19.08979 | 72.94722 | 1296 ft | 140 kts | 273° |
| 2026-05-07 20:42 | 19.09001 | 72.93746 | 1224 ft | 133 kts | 274° |
| 2026-05-07 20:42 | 19.08978 | 72.92771 | 1055 ft | 145 kts | 268° |
| 2026-05-07 20:42 | 19.08912 | 72.91765 | 900 ft | 147 kts | 271° |
| 2026-05-07 20:42 | 19.08898 | 72.90708 | 690 ft | 147 kts | 272° |
| 2026-05-07 20:43 | 19.08896 | 72.89668 | 437 ft | 145 kts | 271° |
| 2026-05-07 20:43 | 19.08893 | 72.88675 | 257 ft | 136 kts | 271° |
| 2026-05-07 20:43 | 19.08881 | 72.87691 | 77 ft | 130 kts | 270° |
| 2026-05-07 20:43 | 19.08872 | 72.86807 | 37 ft | 106 kts | 270° |
| 2026-05-07 20:44 | 19.08868 | 72.86163 | 37 ft | 72 kts | 270° |
| 2026-05-07 20:44 | 19.08866 | 72.85812 | 34 ft | 28 kts | 268° |
| 2026-05-07 20:44 | 19.08907 | 72.85609 | 32 ft | 29 kts | 293° |
| 2026-05-07 20:44 | 19.08952 | 72.85503 | 33 ft | 11 kts | 309° |
| 2026-05-07 20:45 | 19.09016 | 72.85510 | 34 ft | 12 kts | 58° |
| 2026-05-07 20:45 | 19.09026 | 72.85608 | 34 ft | 15 kts | 88° |
| 2026-05-07 20:45 | 19.09029 | 72.85749 | 35 ft | 17 kts | 89° |
| 2026-05-07 20:45 | 19.09030 | 72.85886 | 36 ft | 20 kts | 90° |
| 2026-05-07 20:46 | 19.09032 | 72.86028 | 38 ft | 15 kts | 89° |
| 2026-05-07 20:46 | 19.09034 | 72.86153 | 38 ft | 19 kts | 89° |
| 2026-05-07 20:46 | 19.09037 | 72.86289 | 38 ft | 13 kts | 89° |
| 2026-05-07 20:46 | 19.09037 | 72.86391 | 38 ft | 17 kts | 89° |
| 2026-05-07 20:47 | 19.09039 | 72.86519 | 37 ft | 20 kts | 89° |
| 2026-05-07 20:47 | 19.09041 | 72.86655 | 37 ft | 15 kts | 89° |
| 2026-05-07 20:47 | 19.09042 | 72.86769 | 37 ft | 18 kts | 89° |
| 2026-05-07 20:47 | 19.09045 | 72.86910 | 36 ft | 18 kts | 89° |
| 2026-05-07 20:48 | 19.09048 | 72.87032 | 35 ft | 18 kts | 89° |
| 2026-05-07 20:48 | 19.09050 | 72.87152 | 35 ft | 12 kts | 88° |
| 2026-05-07 20:48 | 19.09069 | 72.87241 | 35 ft | 14 kts | 45° |
| 2026-05-07 20:48 | 19.09166 | 72.87264 | 37 ft | 15 kts | 358° |
| 2026-05-07 20:49 | 19.09257 | 72.87240 | 39 ft | 10 kts | 343° |
| 2026-05-07 20:49 | 19.09304 | 72.87225 | 39 ft | 6 kts | 342° |
| 2026-05-07 20:49 | 19.09333 | 72.87215 | 40 ft | 0 kts | 343° |